createdAt,value
2018-05-16T00:01:23.863Z,14.03
2018-05-16T00:03:52.242Z,14.09
2018-05-16T00:06:20.619Z,14.07
2018-05-16T00:08:49.793Z,14.11
2018-05-16T00:11:18.220Z,14.05
2018-05-16T00:13:46.604Z,13.97
2018-05-16T00:16:14.949Z,14.01
2018-05-16T00:18:43.748Z,13.92
2018-05-16T00:21:12.137Z,13.83
2018-05-16T00:23:40.813Z,13.81
2018-05-16T00:26:09.597Z,13.85
2018-05-16T00:28:37.934Z,13.78
2018-05-16T00:31:06.280Z,13.91
2018-05-16T00:33:34.624Z,13.88
2018-05-16T00:36:03.804Z,13.75
2018-05-16T00:38:32.148Z,13.62
2018-05-16T00:41:00.505Z,13.63
2018-05-16T00:43:28.851Z,13.67
2018-05-16T00:45:57.209Z,13.69
2018-05-16T00:48:25.663Z,13.67
2018-05-16T00:51:05.601Z,13.60
2018-05-16T00:53:33.966Z,13.64
2018-05-16T00:56:02.322Z,13.60
2018-05-16T00:58:30.666Z,13.52
2018-05-16T01:00:59.935Z,13.52
2018-05-16T01:03:28.273Z,13.56
2018-05-16T01:05:56.640Z,13.53
2018-05-16T01:08:25.899Z,13.56
2018-05-16T01:10:54.248Z,13.58
2018-05-16T01:13:23.400Z,13.57
2018-05-16T01:15:52.855Z,13.59
2018-05-16T01:18:21.199Z,13.63
2018-05-16T01:20:49.557Z,13.74
2018-05-16T01:23:17.880Z,13.69
2018-05-16T01:25:47.481Z,13.72
2018-05-16T01:28:15.818Z,13.82
2018-05-16T01:30:44.225Z,13.75
2018-05-16T01:33:13.289Z,13.72
2018-05-16T01:35:42.365Z,13.79
2018-05-16T01:38:11.921Z,13.72
2018-05-16T01:40:40.985Z,13.74
2018-05-16T01:43:09.332Z,13.68
2018-05-16T01:45:37.684Z,13.69
2018-05-16T01:48:06.014Z,13.62
2018-05-16T01:50:34.410Z,13.63
2018-05-16T01:53:02.781Z,13.54
2018-05-16T01:55:31.140Z,13.63
2018-05-16T01:57:59.502Z,13.63
2018-05-16T02:00:28.085Z,13.53
2018-05-16T02:02:57.211Z,13.56
2018-05-16T02:05:25.567Z,13.54
2018-05-16T02:07:53.907Z,13.47
2018-05-16T02:10:22.667Z,13.57
2018-05-16T02:12:50.999Z,13.57
2018-05-16T02:15:20.081Z,13.60
2018-05-16T02:17:48.426Z,13.58
2018-05-16T02:20:16.851Z,13.59
2018-05-16T02:22:45.193Z,13.50
2018-05-16T02:25:13.553Z,13.71
2018-05-16T02:27:42.318Z,13.53
2018-05-16T02:30:12.346Z,13.50
2018-05-16T02:32:40.723Z,13.47
2018-05-16T02:35:09.080Z,13.44
2018-05-16T02:37:37.409Z,13.48
2018-05-16T02:40:05.769Z,13.45
2018-05-16T02:42:34.124Z,13.58
2018-05-16T02:45:02.710Z,13.63
2018-05-16T02:47:31.098Z,13.71
2018-05-16T02:49:59.446Z,13.47
2018-05-16T02:52:27.787Z,13.37
2018-05-16T02:54:56.108Z,13.34
2018-05-16T02:57:25.539Z,13.42
2018-05-16T02:59:53.808Z,13.47
2018-05-16T03:02:22.601Z,13.34
2018-05-16T03:04:51.342Z,13.30
2018-05-16T03:07:20.698Z,13.18
2018-05-16T03:09:49.034Z,13.16
2018-05-16T03:12:17.510Z,13.08
2018-05-16T03:14:47.510Z,13.01
2018-05-16T03:17:15.854Z,12.98
2018-05-16T03:19:44.466Z,13.03
2018-05-16T03:22:12.821Z,13.02
2018-05-16T03:24:41.153Z,13.03
2018-05-16T03:27:09.511Z,12.99
2018-05-16T03:29:38.289Z,12.99
2018-05-16T03:32:07.718Z,13.08
2018-05-16T03:34:36.049Z,12.99
2018-05-16T03:37:04.659Z,12.93
2018-05-16T03:39:33.002Z,13.09
2018-05-16T03:42:01.349Z,13.07
2018-05-16T03:44:30.043Z,13.16
2018-05-16T03:46:58.644Z,13.23
2018-05-16T03:49:26.969Z,13.36
2018-05-16T03:51:57.050Z,13.24
2018-05-16T03:54:25.424Z,13.38
2018-05-16T03:56:53.837Z,13.30
2018-05-16T03:59:34.278Z,13.26
2018-05-16T04:02:14.796Z,13.26
2018-05-16T04:04:43.171Z,13.11
2018-05-16T04:07:11.533Z,13.11
2018-05-16T04:09:40.696Z,13.09
2018-05-16T04:12:09.049Z,13.08
2018-05-16T04:14:38.187Z,13.23
2018-05-16T04:17:06.901Z,13.23
2018-05-16T04:19:35.257Z,13.34
2018-05-16T04:22:03.617Z,13.42
2018-05-16T04:24:31.959Z,13.53
2018-05-16T04:27:00.320Z,13.51
2018-05-16T04:29:28.737Z,13.58
2018-05-16T04:31:57.107Z,13.57
2018-05-16T04:34:25.438Z,13.45
2018-05-16T04:36:54.530Z,13.41
2018-05-16T04:39:22.873Z,13.38
2018-05-16T04:41:51.357Z,13.29
2018-05-16T04:44:19.625Z,13.29
2018-05-16T04:46:48.039Z,13.34
2018-05-16T04:49:16.582Z,13.29
2018-05-16T04:51:44.951Z,13.26
2018-05-16T04:54:13.285Z,13.23
2018-05-16T04:56:41.994Z,13.09
2018-05-16T04:59:10.957Z,13.02
2018-05-16T05:01:40.742Z,13.10
2018-05-16T05:04:09.091Z,12.86
2018-05-16T05:06:37.739Z,12.96
2018-05-16T05:09:06.213Z,13.04
2018-05-16T05:11:35.584Z,13.01
2018-05-16T05:14:05.702Z,13.32
2018-05-16T05:16:34.068Z,13.32
2018-05-16T05:19:02.400Z,13.18
2018-05-16T05:21:32.471Z,13.25
2018-05-16T05:24:00.890Z,13.43
2018-05-16T05:26:29.609Z,13.29
2018-05-16T05:28:57.982Z,13.52
2018-05-16T05:31:26.325Z,13.45
2018-05-16T05:33:56.065Z,13.57
2018-05-16T05:36:25.155Z,13.50
2018-05-16T05:38:54.414Z,13.64
2018-05-16T05:41:23.195Z,13.63
2018-05-16T05:43:51.544Z,13.63
2018-05-16T05:46:19.894Z,13.69
2018-05-16T05:48:48.497Z,13.42
2018-05-16T05:51:17.521Z,13.38
2018-05-16T05:53:46.157Z,13.44
2018-05-16T05:56:14.500Z,13.44
2018-05-16T05:58:42.964Z,13.47
2018-05-16T06:01:11.323Z,13.38
2018-05-16T06:03:40.483Z,13.38
2018-05-16T06:06:09.130Z,13.56
2018-05-16T06:08:37.534Z,13.73
2018-05-16T06:11:06.396Z,13.77
2018-05-16T06:13:35.492Z,13.70
2018-05-16T06:16:03.842Z,13.89
2018-05-16T06:18:32.199Z,13.99
2018-05-16T06:21:00.550Z,14.08
2018-05-16T06:23:29.169Z,14.08
2018-05-16T06:25:57.529Z,14.09
2018-05-16T06:28:25.888Z,14.10
2018-05-16T06:30:54.223Z,14.17
2018-05-16T06:33:22.834Z,14.18
2018-05-16T06:35:52.004Z,14.28
2018-05-16T06:38:21.640Z,14.35
2018-05-16T06:40:50.705Z,14.45
2018-05-16T06:43:19.050Z,14.75
2018-05-16T06:45:47.503Z,14.87
2018-05-16T06:48:16.716Z,15.07
2018-05-16T06:50:45.801Z,15.16
2018-05-16T06:53:14.142Z,15.41
2018-05-16T06:55:42.488Z,15.35
2018-05-16T06:58:11.193Z,15.27
2018-05-16T07:00:40.264Z,15.21
2018-05-16T07:03:09.478Z,15.35
2018-05-16T07:05:37.887Z,15.26
2018-05-16T07:08:07.219Z,15.59
2018-05-16T07:10:35.816Z,15.91
2018-05-16T07:13:04.164Z,15.95
2018-05-16T07:15:32.516Z,15.77
2018-05-16T07:18:01.858Z,15.33
2018-05-16T07:20:30.344Z,15.33
2018-05-16T07:22:59.581Z,15.49
2018-05-16T07:25:28.286Z,15.59
2018-05-16T07:27:57.612Z,15.81
2018-05-16T07:30:27.203Z,15.63
2018-05-16T07:32:55.545Z,15.67
2018-05-16T07:35:24.826Z,15.46
2018-05-16T07:37:53.206Z,15.31
2018-05-16T07:40:21.949Z,15.14
2018-05-16T07:42:52.161Z,15.31
2018-05-16T07:45:21.373Z,15.33
2018-05-16T07:47:50.057Z,15.29
2018-05-16T07:50:18.420Z,15.44
2018-05-16T07:52:47.475Z,15.56
2018-05-16T07:55:16.357Z,15.85
2018-05-16T07:57:45.617Z,15.82
2018-05-16T08:00:13.954Z,15.91
2018-05-16T08:02:42.379Z,16.08
2018-05-16T08:05:10.717Z,16.33
2018-05-16T08:07:39.828Z,16.45
2018-05-16T08:10:09.925Z,16.41
2018-05-16T08:12:38.759Z,16.65
2018-05-16T08:15:07.130Z,16.70
2018-05-16T08:17:35.938Z,16.65
2018-05-16T08:20:04.503Z,16.69
2018-05-16T08:22:33.785Z,16.88
2018-05-16T08:25:02.974Z,16.88
2018-05-16T08:27:32.383Z,16.99
2018-05-16T08:30:00.756Z,17.22
2018-05-16T08:32:29.119Z,16.72
2018-05-16T08:34:57.444Z,16.81
2018-05-16T08:37:26.667Z,16.84
2018-05-16T08:39:55.422Z,16.80
2018-05-16T08:42:24.533Z,16.97
2018-05-16T08:44:52.862Z,17.32
2018-05-16T08:47:21.590Z,17.23
2018-05-16T08:49:49.971Z,17.32
2018-05-16T08:52:18.408Z,17.46
2018-05-16T08:54:46.752Z,17.39
2018-05-16T08:57:16.030Z,17.43
2018-05-16T08:59:44.406Z,17.31
2018-05-16T09:02:12.782Z,17.38
2018-05-16T09:04:41.111Z,17.52
2018-05-16T09:07:10.817Z,17.62
2018-05-16T09:09:39.166Z,17.66
2018-05-16T09:12:07.562Z,17.58
2018-05-16T09:14:35.909Z,17.83
2018-05-16T09:17:04.240Z,17.94
2018-05-16T09:19:32.682Z,17.90
2018-05-16T09:22:01.066Z,17.97
2018-05-16T09:24:30.349Z,18.18
2018-05-16T09:26:59.148Z,18.62
2018-05-16T09:29:27.739Z,19.04
2018-05-16T09:31:56.504Z,19.12
2018-05-16T09:34:25.522Z,19.22
2018-05-16T09:36:53.905Z,19.08
2018-05-16T09:39:22.293Z,19.22
2018-05-16T09:41:51.025Z,19.35
2018-05-16T09:44:19.438Z,19.61
2018-05-16T09:46:47.796Z,19.44
2018-05-16T09:49:16.195Z,19.12
2018-05-16T09:51:44.553Z,19.05
2018-05-16T09:54:12.934Z,19.15
2018-05-16T09:56:41.337Z,19.50
2018-05-16T09:59:09.743Z,19.45
2018-05-16T10:01:38.556Z,20.00
2018-05-16T10:04:06.923Z,20.41
2018-05-16T10:06:35.617Z,20.49
2018-05-16T10:09:04.528Z,20.02
2018-05-16T10:11:32.862Z,19.99
2018-05-16T10:14:01.602Z,20.09
2018-05-16T10:16:29.949Z,20.24
2018-05-16T10:18:58.358Z,20.54
2018-05-16T10:21:26.936Z,20.43
2018-05-16T10:23:55.693Z,20.54
2018-05-16T10:26:24.925Z,20.80
2018-05-16T10:28:54.160Z,20.93
2018-05-16T10:31:22.753Z,20.44
2018-05-16T10:33:51.153Z,19.93
2018-05-16T10:36:19.723Z,19.33
2018-05-16T10:38:47.867Z,19.23
2018-05-16T10:41:16.270Z,18.68
2018-05-16T10:43:44.937Z,18.50
2018-05-16T10:46:13.296Z,18.16
2018-05-16T10:48:42.066Z,18.47
2018-05-16T10:51:10.435Z,18.45
2018-05-16T10:53:39.109Z,18.70
2018-05-16T10:56:07.502Z,18.66
2018-05-16T10:58:36.706Z,18.63
2018-05-16T11:01:05.080Z,18.66
2018-05-16T11:03:33.425Z,18.61
2018-05-16T11:06:02.413Z,18.77
2018-05-16T11:08:30.753Z,18.68
2018-05-16T11:10:59.117Z,19.71
2018-05-16T11:13:27.501Z,20.15
2018-05-16T11:15:55.857Z,20.98
2018-05-16T11:18:24.230Z,20.91
2018-05-16T11:20:52.593Z,20.96
2018-05-16T11:23:21.842Z,21.82
2018-05-16T11:25:50.260Z,21.85
2018-05-16T11:28:19.302Z,22.28
2018-05-16T11:30:47.660Z,22.06
2018-05-16T11:33:16.001Z,21.94
2018-05-16T11:35:44.353Z,21.44
2018-05-16T11:38:12.683Z,20.69
2018-05-16T11:40:41.456Z,20.03
2018-05-16T11:43:11.557Z,20.58
2018-05-16T11:45:40.485Z,21.03
2018-05-16T11:48:09.860Z,22.20
2018-05-16T11:50:38.196Z,22.41
2018-05-16T11:53:06.553Z,21.82
2018-05-16T11:55:34.909Z,21.84
2018-05-16T11:58:03.264Z,22.25
2018-05-16T12:00:32.018Z,22.39
2018-05-16T12:03:00.948Z,22.39
2018-05-16T12:05:29.630Z,23.29
2018-05-16T12:07:57.983Z,23.36
2018-05-16T12:10:26.373Z,23.89
2018-05-16T12:12:54.744Z,23.93
2018-05-16T12:15:23.072Z,24.12
2018-05-16T12:17:51.469Z,23.75
2018-05-16T12:20:19.811Z,24.04
2018-05-16T12:22:48.179Z,23.87
2018-05-16T12:25:16.545Z,24.05
2018-05-16T12:27:45.582Z,24.72
2018-05-16T12:30:13.907Z,24.92
2018-05-16T12:32:42.253Z,23.82
2018-05-16T12:35:11.054Z,23.45
2018-05-16T12:37:39.388Z,23.02
2018-05-16T12:40:07.733Z,22.26
2018-05-16T12:42:36.098Z,21.46
2018-05-16T12:45:04.439Z,20.93
2018-05-16T12:47:32.811Z,20.35
2018-05-16T12:50:01.705Z,20.23
2018-05-16T12:52:30.054Z,20.35
2018-05-16T12:54:58.689Z,20.17
2018-05-16T12:57:27.104Z,20.18
2018-05-16T12:59:55.483Z,20.08
2018-05-16T13:02:24.245Z,19.99
2018-05-16T13:04:52.590Z,20.22
2018-05-16T13:07:21.818Z,19.90
2018-05-16T13:09:50.157Z,20.34
2018-05-16T13:12:18.535Z,20.42
2018-05-16T13:14:46.921Z,20.36
2018-05-16T13:17:15.256Z,20.26
2018-05-16T13:19:47.838Z,20.11
2018-05-16T13:22:16.175Z,19.72
2018-05-16T13:24:44.529Z,19.45
2018-05-16T13:27:13.773Z,19.12
2018-05-16T13:29:42.166Z,18.77
2018-05-16T13:32:11.421Z,18.83
2018-05-16T13:34:40.521Z,19.06
2018-05-16T13:37:09.221Z,19.24
2018-05-16T13:39:39.230Z,18.73
2018-05-16T13:42:07.924Z,18.69
2018-05-16T13:44:36.313Z,18.87
2018-05-16T13:47:04.647Z,18.63
2018-05-16T13:49:33.119Z,18.93
2018-05-16T13:52:01.446Z,19.34
2018-05-16T13:54:30.537Z,19.12
2018-05-16T13:56:59.101Z,19.14
2018-05-16T13:59:27.464Z,19.22
2018-05-16T14:01:58.619Z,19.06
2018-05-16T14:04:26.985Z,19.17
2018-05-16T14:06:55.759Z,19.45
2018-05-16T14:09:25.683Z,19.39
2018-05-16T14:11:54.955Z,19.13
2018-05-16T14:14:23.317Z,18.85
2018-05-16T14:16:51.675Z,19.08
2018-05-16T14:19:20.006Z,19.27
2018-05-16T14:21:49.015Z,19.30
2018-05-16T14:24:17.448Z,19.30
2018-05-16T14:26:45.859Z,19.38
2018-05-16T14:29:14.849Z,19.64
2018-05-16T14:31:43.201Z,20.05
2018-05-16T14:34:11.590Z,20.35
2018-05-16T14:36:39.969Z,20.58
2018-05-16T14:39:08.544Z,20.53
2018-05-16T14:41:37.345Z,20.88
2018-05-16T14:44:05.666Z,21.34
2018-05-16T14:46:34.014Z,22.01
2018-05-16T14:49:03.209Z,22.70
2018-05-16T14:51:32.196Z,22.76
2018-05-16T14:54:00.944Z,22.89
2018-05-16T14:56:29.659Z,22.27
2018-05-16T14:58:57.998Z,22.14
2018-05-16T15:01:26.369Z,21.21
2018-05-16T15:03:54.705Z,20.95
2018-05-16T15:06:23.887Z,21.30
2018-05-16T15:08:53.117Z,21.63
2018-05-16T15:11:21.733Z,21.91
2018-05-16T15:13:50.058Z,21.69
2018-05-16T15:16:18.421Z,22.21
2018-05-16T15:18:46.745Z,22.63
2018-05-16T15:21:15.195Z,22.87
2018-05-16T15:23:43.457Z,22.77
2018-05-16T15:26:12.375Z,22.47
2018-05-16T15:28:40.690Z,22.02
2018-05-16T15:31:09.039Z,22.26
2018-05-16T15:33:37.366Z,22.54
2018-05-16T15:36:05.693Z,22.92
2018-05-16T15:38:34.766Z,22.45
2018-05-16T15:41:03.149Z,22.98
2018-05-16T15:43:31.551Z,22.77
2018-05-16T15:46:00.185Z,22.59
2018-05-16T15:48:28.846Z,22.69
2018-05-16T15:50:58.015Z,22.53
2018-05-16T15:53:26.368Z,22.43
2018-05-16T15:55:55.675Z,21.80
2018-05-16T15:58:24.072Z,22.17
2018-05-16T16:00:52.443Z,22.08
2018-05-16T16:03:20.800Z,22.66
2018-05-16T16:05:49.155Z,22.09
2018-05-16T16:08:18.085Z,21.98
2018-05-16T16:10:46.405Z,22.08
2018-05-16T16:13:15.624Z,22.26
2018-05-16T16:15:43.964Z,21.78
2018-05-16T16:18:12.318Z,21.79
2018-05-16T16:20:42.460Z,21.46
2018-05-16T16:23:10.809Z,21.81
2018-05-16T16:25:39.142Z,21.93
2018-05-16T16:28:08.464Z,22.11
2018-05-16T16:30:36.799Z,22.72
2018-05-16T16:33:05.155Z,22.74
2018-05-16T16:35:33.485Z,22.82
2018-05-16T16:38:02.971Z,23.43
2018-05-16T16:40:32.993Z,23.97
2018-05-16T16:43:01.745Z,23.23
2018-05-16T16:45:30.445Z,22.95
2018-05-16T16:47:58.838Z,23.19
2018-05-16T16:50:27.923Z,22.88
2018-05-16T16:52:57.875Z,23.36
2018-05-16T16:55:26.545Z,23.81
2018-05-16T16:57:57.265Z,23.62
2018-05-16T17:00:26.983Z,22.93
2018-05-16T17:02:56.337Z,22.52
2018-05-16T17:05:24.701Z,22.46
2018-05-16T17:07:53.262Z,21.81
2018-05-16T17:10:22.713Z,21.27
2018-05-16T17:12:51.427Z,21.52
2018-05-16T17:15:20.640Z,21.38
2018-05-16T17:17:49.050Z,20.70
2018-05-16T17:20:17.421Z,20.74
2018-05-16T17:22:45.745Z,20.66
2018-05-16T17:25:14.139Z,20.63
2018-05-16T17:27:42.469Z,20.55
2018-05-16T17:30:10.826Z,20.51
2018-05-16T17:32:39.145Z,20.55
2018-05-16T17:35:08.321Z,20.21
2018-05-16T17:37:37.504Z,20.11
2018-05-16T17:40:05.846Z,19.93
2018-05-16T17:42:34.802Z,19.86
2018-05-16T17:45:03.153Z,19.89
2018-05-16T17:47:31.905Z,19.96
2018-05-16T17:50:00.255Z,20.09
2018-05-16T17:52:28.588Z,19.97
2018-05-16T17:54:58.056Z,19.95
2018-05-16T17:57:27.220Z,19.85
2018-05-16T17:59:55.577Z,19.80
2018-05-16T18:02:24.308Z,19.73
2018-05-16T18:04:53.292Z,19.54
2018-05-16T18:07:21.641Z,19.55
2018-05-16T18:09:50.309Z,19.50
2018-05-16T18:12:18.667Z,19.54
2018-05-16T18:17:53.712Z,19.24
2018-05-16T18:20:22.057Z,19.06
2018-05-16T18:22:51.857Z,18.90
2018-05-16T18:25:20.181Z,18.83
2018-05-16T18:27:48.768Z,18.53
2018-05-16T18:30:17.099Z,18.58
2018-05-16T18:32:45.436Z,18.58
2018-05-16T18:35:15.307Z,18.60
2018-05-16T18:37:43.755Z,18.45
2018-05-16T18:40:12.511Z,18.37
2018-05-16T18:42:41.271Z,18.29
2018-05-16T18:45:09.936Z,18.30
2018-05-16T18:47:38.285Z,18.22
2018-05-16T18:50:06.657Z,18.19
2018-05-16T18:52:36.713Z,17.97
2018-05-16T18:55:06.258Z,18.16
2018-05-16T18:57:35.644Z,18.09
2018-05-16T19:00:04.502Z,17.93
2018-05-16T19:02:32.930Z,17.83
2018-05-16T19:05:01.307Z,17.73
2018-05-16T19:07:29.677Z,17.73
2018-05-16T19:09:58.781Z,17.71
2018-05-16T19:12:27.588Z,17.59
2018-05-16T19:14:56.250Z,17.70
2018-05-16T19:17:24.664Z,17.59
2018-05-16T19:19:53.092Z,17.60
2018-05-16T19:22:22.312Z,17.41
2018-05-16T19:24:51.443Z,17.44
2018-05-16T19:27:20.064Z,17.42
2018-05-16T19:29:48.438Z,17.44
2018-05-16T19:32:19.693Z,17.49
2018-05-16T19:34:48.057Z,17.38
2018-05-16T19:37:16.440Z,17.53
2018-05-16T19:39:45.634Z,17.49
2018-05-16T19:42:14.327Z,17.48
2018-05-16T19:44:43.101Z,17.50
2018-05-16T19:47:12.734Z,17.48
2018-05-16T19:49:41.972Z,17.31
2018-05-16T19:52:10.575Z,17.37
2018-05-16T19:54:39.288Z,17.30
2018-05-16T19:57:08.315Z,17.17
2018-05-16T19:59:37.873Z,17.19
2018-05-16T20:02:06.990Z,17.18
2018-05-16T20:04:35.898Z,17.11
2018-05-16T20:07:04.280Z,17.05
2018-05-16T20:09:32.640Z,17.05
2018-05-16T20:12:01.721Z,17.02
2018-05-16T20:14:30.382Z,17.09
2018-05-16T20:16:58.683Z,17.04
2018-05-16T20:19:27.416Z,16.98
2018-05-16T20:21:55.753Z,16.98
2018-05-16T20:24:25.331Z,16.86
2018-05-16T20:26:53.795Z,16.87
2018-05-16T20:29:22.202Z,16.81
2018-05-16T20:31:50.535Z,16.74
2018-05-16T20:34:18.925Z,16.78
2018-05-16T20:36:47.255Z,16.70
2018-05-16T20:39:15.710Z,16.65
2018-05-16T20:41:44.043Z,16.45
2018-05-16T20:44:12.848Z,16.54
2018-05-16T20:46:41.245Z,16.27
2018-05-16T20:49:09.596Z,16.51
2018-05-16T20:51:37.961Z,16.46
2018-05-16T20:54:06.745Z,16.59
2018-05-16T20:56:35.528Z,16.48
2018-05-16T20:59:03.879Z,16.48
2018-05-16T21:01:32.426Z,16.52
2018-05-16T21:04:00.810Z,16.48
2018-05-16T21:06:29.184Z,16.50
2018-05-16T21:09:01.101Z,16.42
2018-05-16T21:11:29.517Z,16.39
2018-05-16T21:13:58.721Z,16.46
2018-05-16T21:16:27.101Z,16.38
2018-05-16T21:18:56.373Z,16.25
2018-05-16T21:21:24.884Z,16.22
2018-05-16T21:23:53.236Z,16.24
2018-05-16T21:26:21.608Z,16.15
2018-05-16T21:28:49.977Z,16.07
2018-05-16T21:31:18.801Z,16.06
2018-05-16T21:33:47.145Z,16.03
2018-05-16T21:36:15.916Z,16.06
2018-05-16T21:38:44.293Z,16.12
2018-05-16T21:41:12.673Z,16.08
2018-05-16T21:43:41.041Z,16.20
2018-05-16T21:46:09.464Z,16.22
2018-05-16T21:48:38.372Z,16.19
2018-05-16T21:51:07.666Z,16.09
2018-05-16T21:53:36.173Z,16.23
2018-05-16T21:56:04.524Z,16.19
2018-05-16T21:58:32.917Z,16.20
2018-05-16T22:01:01.598Z,16.27
2018-05-16T22:03:29.980Z,16.21
2018-05-16T22:05:58.348Z,16.28
2018-05-16T22:08:26.692Z,16.24
2018-05-16T22:10:55.035Z,16.22
2018-05-16T22:13:23.661Z,16.22
2018-05-16T22:15:52.010Z,16.22
2018-05-16T22:18:20.377Z,16.14
2018-05-16T22:20:50.007Z,16.10
2018-05-16T22:23:18.387Z,16.15
2018-05-16T22:25:46.729Z,16.13
2018-05-16T22:28:15.086Z,16.24
2018-05-16T22:30:49.769Z,16.08
2018-05-16T22:33:23.736Z,15.98
2018-05-16T22:35:57.736Z,15.94
2018-05-16T22:38:31.668Z,15.94
2018-05-16T22:41:05.453Z,15.80
2018-05-16T22:43:46.083Z,15.71
2018-05-16T22:46:14.425Z,15.70
2018-05-16T22:48:42.791Z,15.67
2018-05-16T22:51:11.124Z,15.72
2018-05-16T22:53:40.520Z,15.62
2018-05-16T22:56:09.857Z,15.62
2018-05-16T22:58:38.693Z,15.69
2018-05-16T23:01:07.041Z,15.71
2018-05-16T23:03:35.658Z,15.67
2018-05-16T23:06:04.054Z,15.69
2018-05-16T23:08:32.421Z,15.67
2018-05-16T23:11:02.846Z,15.74
2018-05-16T23:13:31.266Z,15.75
2018-05-16T23:16:00.396Z,15.67
2018-05-16T23:18:29.530Z,15.68
2018-05-16T23:20:58.872Z,15.72
2018-05-16T23:23:27.238Z,15.75
2018-05-16T23:25:55.897Z,15.85
2018-05-16T23:28:25.103Z,15.88
2018-05-16T23:30:53.452Z,15.85
2018-05-16T23:33:21.864Z,15.74
2018-05-16T23:35:50.197Z,15.74
2018-05-16T23:38:18.531Z,15.71
2018-05-16T23:40:47.680Z,15.68
2018-05-16T23:43:16.074Z,15.75
2018-05-16T23:45:44.448Z,15.85
2018-05-16T23:48:12.920Z,15.66
2018-05-16T23:50:41.285Z,15.69
2018-05-16T23:53:09.641Z,15.78
2018-05-16T23:55:38.012Z,15.74
2018-05-16T23:58:07.180Z,15.84
